sensor_id;sensor_type;location;lat;lon;timestamp;pressure;altitude;pressure_sealevel;temperature;humidity
27840;BME280;15207;42.182;24.308;2022-10-16T00:01:19;99936.84;;;10.15;93.52
27840;BME280;15207;42.182;24.308;2022-10-16T00:03:46;99938.28;;;9.93;95.12
27840;BME280;15207;42.182;24.308;2022-10-16T00:06:13;99943.63;;;9.93;95.51
27840;BME280;15207;42.182;24.308;2022-10-16T00:08:40;99945.88;;;9.86;95.01
27840;BME280;15207;42.182;24.308;2022-10-16T00:11:11;99948.34;;;9.89;95.93
27840;BME280;15207;42.182;24.308;2022-10-16T00:13:39;99946.72;;;9.87;95.87
27840;BME280;15207;42.182;24.308;2022-10-16T00:16:06;99956.88;;;9.82;95.72
27840;BME280;15207;42.182;24.308;2022-10-16T00:18:33;99954.19;;;9.82;96.77
27840;BME280;15207;42.182;24.308;2022-10-16T00:21:20;99953.25;;;9.83;97.80
27840;BME280;15207;42.182;24.308;2022-10-16T00:23:46;99960.75;;;9.90;97.52
27840;BME280;15207;42.182;24.308;2022-10-16T00:26:14;99956.38;;;9.89;96.21
27840;BME280;15207;42.182;24.308;2022-10-16T00:28:40;99946.72;;;9.87;95.73
27840;BME280;15207;42.182;24.308;2022-10-16T00:31:08;99956.56;;;9.86;95.34
27840;BME280;15207;42.182;24.308;2022-10-16T00:33:35;99955.25;;;9.79;96.69
27840;BME280;15207;42.182;24.308;2022-10-16T00:36:03;99952.59;;;9.79;96.06
27840;BME280;15207;42.182;24.308;2022-10-16T00:38:29;99958.72;;;9.66;94.89
27840;BME280;15207;42.182;24.308;2022-10-16T00:40:55;99954.81;;;9.72;94.90
27840;BME280;15207;42.182;24.308;2022-10-16T00:43:51;99962.75;;;9.59;95.02
27840;BME280;15207;42.182;24.308;2022-10-16T00:46:26;99972.78;;;9.56;96.00
27840;BME280;15207;42.182;24.308;2022-10-16T00:49:09;99972.34;;;9.34;95.21
27840;BME280;15207;42.182;24.308;2022-10-16T00:51:41;99973.69;;;9.27;95.73
27840;BME280;15207;42.182;24.308;2022-10-16T00:54:11;99978.06;;;9.43;95.39
27840;BME280;15207;42.182;24.308;2022-10-16T00:56:39;99982.66;;;9.26;96.06
27840;BME280;15207;42.182;24.308;2022-10-16T00:59:06;99984.59;;;9.24;96.80
27840;BME280;15207;42.182;24.308;2022-10-16T01:01:33;99985.50;;;9.23;97.13
27840;BME280;15207;42.182;24.308;2022-10-16T01:03:58;99988.59;;;9.17;96.41
27840;BME280;15207;42.182;24.308;2022-10-16T01:09:24;100003.00;;;9.14;95.49
27840;BME280;15207;42.182;24.308;2022-10-16T01:12:23;100011.56;;;9.05;95.91
27840;BME280;15207;42.182;24.308;2022-10-16T01:17:57;100009.13;;;9.02;96.04
27840;BME280;15207;42.182;24.308;2022-10-16T01:28:25;100015.00;;;8.78;95.15
27840;BME280;15207;42.182;24.308;2022-10-16T01:30:56;100014.31;;;8.74;94.87
27840;BME280;15207;42.182;24.308;2022-10-16T01:33:28;100017.25;;;8.69;95.68
27840;BME280;15207;42.182;24.308;2022-10-16T01:35:59;100022.34;;;8.74;95.33
27840;BME280;15207;42.182;24.308;2022-10-16T01:38:37;100019.34;;;8.64;95.59
27840;BME280;15207;42.182;24.308;2022-10-16T01:41:26;100017.03;;;8.58;96.14
27840;BME280;15207;42.182;24.308;2022-10-16T01:44:38;100022.56;;;8.55;95.60
27840;BME280;15207;42.182;24.308;2022-10-16T01:46:47;100014.97;;;8.47;94.88
27840;BME280;15207;42.182;24.308;2022-10-16T01:49:14;100018.97;;;8.40;95.17
27840;BME280;15207;42.182;24.308;2022-10-16T01:51:45;100014.81;;;8.34;94.93
27840;BME280;15207;42.182;24.308;2022-10-16T01:54:13;100011.31;;;8.33;94.73
27840;BME280;15207;42.182;24.308;2022-10-16T01:56:40;100011.47;;;8.30;95.07
27840;BME280;15207;42.182;24.308;2022-10-16T01:59:13;100009.44;;;8.19;95.04
27840;BME280;15207;42.182;24.308;2022-10-16T02:01:41;100015.81;;;8.17;95.59
27840;BME280;15207;42.182;24.308;2022-10-16T02:04:31;100014.38;;;8.11;95.31
27840;BME280;15207;42.182;24.308;2022-10-16T02:06:59;100017.78;;;8.13;95.83
27840;BME280;15207;42.182;24.308;2022-10-16T02:09:24;100024.00;;;8.14;95.52
27840;BME280;15207;42.182;24.308;2022-10-16T02:11:53;100033.03;;;8.11;95.58
27840;BME280;15207;42.182;24.308;2022-10-16T02:14:22;100024.25;;;8.09;94.90
27840;BME280;15207;42.182;24.308;2022-10-16T02:16:49;100027.59;;;8.13;94.81
27840;BME280;15207;42.182;24.308;2022-10-16T02:19:17;100025.13;;;8.10;93.56
27840;BME280;15207;42.182;24.308;2022-10-16T02:21:56;100037.88;;;8.04;93.64
27840;BME280;15207;42.182;24.308;2022-10-16T02:24:25;100031.94;;;7.99;93.28
27840;BME280;15207;42.182;24.308;2022-10-16T02:27:06;100039.50;;;7.91;92.72
27840;BME280;15207;42.182;24.308;2022-10-16T02:29:39;100037.09;;;7.86;92.88
27840;BME280;15207;42.182;24.308;2022-10-16T02:32:07;100041.03;;;7.79;92.87
27840;BME280;15207;42.182;24.308;2022-10-16T02:34:36;100030.72;;;7.73;93.11
27840;BME280;15207;42.182;24.308;2022-10-16T02:37:04;100038.13;;;7.67;93.18
27840;BME280;15207;42.182;24.308;2022-10-16T02:39:31;100034.94;;;7.61;93.69
27840;BME280;15207;42.182;24.308;2022-10-16T02:41:56;100039.50;;;7.59;93.82
27840;BME280;15207;42.182;24.308;2022-10-16T02:44:22;100032.41;;;7.58;94.16
27840;BME280;15207;42.182;24.308;2022-10-16T02:46:48;100046.72;;;7.73;94.45
27840;BME280;15207;42.182;24.308;2022-10-16T02:49:13;100049.41;;;7.73;93.85
27840;BME280;15207;42.182;24.308;2022-10-16T02:51:39;100047.91;;;7.67;94.13
27840;BME280;15207;42.182;24.308;2022-10-16T02:54:04;100050.66;;;7.65;94.05
27840;BME280;15207;42.182;24.308;2022-10-16T02:56:30;100054.28;;;7.48;93.68
27840;BME280;15207;42.182;24.308;2022-10-16T02:58:56;100060.63;;;7.46;94.19
27840;BME280;15207;42.182;24.308;2022-10-16T03:01:22;100057.84;;;7.31;94.26
27840;BME280;15207;42.182;24.308;2022-10-16T03:03:48;100069.44;;;7.30;93.92
27840;BME280;15207;42.182;24.308;2022-10-16T03:06:13;100067.44;;;7.18;93.40
27840;BME280;15207;42.182;24.308;2022-10-16T03:08:39;100073.31;;;7.07;94.64
27840;BME280;15207;42.182;24.308;2022-10-16T03:11:04;100071.72;;;7.20;95.29
27840;BME280;15207;42.182;24.308;2022-10-16T03:13:30;100073.84;;;7.13;96.08
27840;BME280;15207;42.182;24.308;2022-10-16T03:15:55;100072.06;;;7.14;96.36
27840;BME280;15207;42.182;24.308;2022-10-16T03:18:21;100075.41;;;7.18;97.15
27840;BME280;15207;42.182;24.308;2022-10-16T03:20:46;100077.13;;;7.19;96.80
27840;BME280;15207;42.182;24.308;2022-10-16T03:23:13;100082.06;;;7.26;97.33
27840;BME280;15207;42.182;24.308;2022-10-16T03:25:39;100084.03;;;7.23;97.22
27840;BME280;15207;42.182;24.308;2022-10-16T03:28:05;100081.09;;;7.27;97.37
27840;BME280;15207;42.182;24.308;2022-10-16T03:30:31;100079.72;;;7.20;96.84
27840;BME280;15207;42.182;24.308;2022-10-16T03:32:56;100080.41;;;7.24;96.83
27840;BME280;15207;42.182;24.308;2022-10-16T03:35:23;100086.63;;;7.24;96.25
27840;BME280;15207;42.182;24.308;2022-10-16T03:37:49;100084.97;;;7.22;95.84
27840;BME280;15207;42.182;24.308;2022-10-16T03:40:15;100080.81;;;7.16;95.49
27840;BME280;15207;42.182;24.308;2022-10-16T03:42:44;100087.09;;;7.15;95.13
27840;BME280;15207;42.182;24.308;2022-10-16T03:45:10;100088.28;;;7.09;94.92
27840;BME280;15207;42.182;24.308;2022-10-16T03:47:36;100082.94;;;7.09;94.59
27840;BME280;15207;42.182;24.308;2022-10-16T03:50:02;100083.28;;;7.03;93.90
27840;BME280;15207;42.182;24.308;2022-10-16T03:52:28;100085.31;;;6.98;94.50
27840;BME280;15207;42.182;24.308;2022-10-16T03:54:53;100082.41;;;7.03;95.63
27840;BME280;15207;42.182;24.308;2022-10-16T03:57:19;100088.34;;;7.08;95.19
27840;BME280;15207;42.182;24.308;2022-10-16T03:59:46;100084.69;;;7.10;94.35
27840;BME280;15207;42.182;24.308;2022-10-16T04:02:11;100089.63;;;7.00;94.28
27840;BME280;15207;42.182;24.308;2022-10-16T04:04:37;100089.94;;;6.94;94.17
27840;BME280;15207;42.182;24.308;2022-10-16T04:07:03;100092.94;;;6.88;94.43
27840;BME280;15207;42.182;24.308;2022-10-16T04:09:29;100087.59;;;6.88;94.11
27840;BME280;15207;42.182;24.308;2022-10-16T04:11:54;100092.06;;;6.87;93.62
27840;BME280;15207;42.182;24.308;2022-10-16T04:14:20;100088.84;;;6.81;93.62
27840;BME280;15207;42.182;24.308;2022-10-16T04:16:46;100098.31;;;6.69;94.14
27840;BME280;15207;42.182;24.308;2022-10-16T04:19:11;100090.78;;;6.59;94.65
27840;BME280;15207;42.182;24.308;2022-10-16T04:21:37;100094.06;;;6.47;93.25
27840;BME280;15207;42.182;24.308;2022-10-16T04:24:03;100091.88;;;6.55;92.60
27840;BME280;15207;42.182;24.308;2022-10-16T04:26:29;100089.88;;;6.41;92.98
27840;BME280;15207;42.182;24.308;2022-10-16T04:28:55;100085.66;;;6.37;93.74
27840;BME280;15207;42.182;24.308;2022-10-16T04:31:21;100090.50;;;6.29;94.37
27840;BME280;15207;42.182;24.308;2022-10-16T04:33:46;100094.56;;;6.18;95.19
27840;BME280;15207;42.182;24.308;2022-10-16T04:36:13;100101.16;;;6.09;95.78
27840;BME280;15207;42.182;24.308;2022-10-16T04:38:39;100091.03;;;6.18;96.28
27840;BME280;15207;42.182;24.308;2022-10-16T04:41:05;100095.69;;;6.13;96.86
27840;BME280;15207;42.182;24.308;2022-10-16T04:43:32;100099.69;;;6.02;97.46
27840;BME280;15207;42.182;24.308;2022-10-16T04:45:58;100104.44;;;6.34;97.22
27840;BME280;15207;42.182;24.308;2022-10-16T04:48:23;100105.75;;;6.25;96.23
27840;BME280;15207;42.182;24.308;2022-10-16T04:50:49;100102.63;;;6.34;96.03
27840;BME280;15207;42.182;24.308;2022-10-16T04:53:15;100113.69;;;6.44;96.07
27840;BME280;15207;42.182;24.308;2022-10-16T04:55:42;100122.38;;;6.48;96.29
27840;BME280;15207;42.182;24.308;2022-10-16T04:58:08;100116.88;;;6.53;95.74
27840;BME280;15207;42.182;24.308;2022-10-16T05:00:34;100130.00;;;6.56;95.62
27840;BME280;15207;42.182;24.308;2022-10-16T05:03:00;100126.19;;;6.61;95.34
27840;BME280;15207;42.182;24.308;2022-10-16T05:05:27;100139.81;;;6.55;96.15
27840;BME280;15207;42.182;24.308;2022-10-16T05:07:53;100131.56;;;6.60;96.35
27840;BME280;15207;42.182;24.308;2022-10-16T05:10:19;100139.81;;;6.73;96.24
27840;BME280;15207;42.182;24.308;2022-10-16T05:12:46;100135.44;;;6.72;95.79
27840;BME280;15207;42.182;24.308;2022-10-16T05:15:11;100136.66;;;6.65;96.30
27840;BME280;15207;42.182;24.308;2022-10-16T05:17:37;100140.91;;;6.69;97.16
27840;BME280;15207;42.182;24.308;2022-10-16T05:20:03;100143.25;;;6.75;97.41
27840;BME280;15207;42.182;24.308;2022-10-16T05:22:29;100150.16;;;6.79;97.32
27840;BME280;15207;42.182;24.308;2022-10-16T05:24:54;100149.88;;;6.85;97.38
27840;BME280;15207;42.182;24.308;2022-10-16T05:27:20;100162.78;;;6.93;97.05
27840;BME280;15207;42.182;24.308;2022-10-16T05:29:46;100164.97;;;7.03;97.27
27840;BME280;15207;42.182;24.308;2022-10-16T05:32:13;100168.44;;;7.05;97.00
27840;BME280;15207;42.182;24.308;2022-10-16T05:34:39;100171.41;;;7.16;97.09
27840;BME280;15207;42.182;24.308;2022-10-16T05:37:05;100172.03;;;7.21;96.42
27840;BME280;15207;42.182;24.308;2022-10-16T05:39:31;100165.47;;;7.28;95.94
27840;BME280;15207;42.182;24.308;2022-10-16T05:41:56;100172.88;;;7.39;95.21
27840;BME280;15207;42.182;24.308;2022-10-16T05:44:22;100177.19;;;7.42;95.46
27840;BME280;15207;42.182;24.308;2022-10-16T05:46:47;100181.97;;;7.53;95.62
27840;BME280;15207;42.182;24.308;2022-10-16T05:49:13;100181.63;;;7.59;95.93
27840;BME280;15207;42.182;24.308;2022-10-16T05:51:39;100181.84;;;7.72;95.97
27840;BME280;15207;42.182;24.308;2022-10-16T05:54:04;100194.53;;;7.85;96.17
27840;BME280;15207;42.182;24.308;2022-10-16T05:56:30;100196.31;;;8.02;96.33
27840;BME280;15207;42.182;24.308;2022-10-16T05:58:56;100202.69;;;8.15;95.65
27840;BME280;15207;42.182;24.308;2022-10-16T06:01:22;100203.72;;;8.29;95.69
27840;BME280;15207;42.182;24.308;2022-10-16T06:03:50;100202.22;;;8.57;95.07
27840;BME280;15207;42.182;24.308;2022-10-16T06:06:21;100206.78;;;8.71;94.23
27840;BME280;15207;42.182;24.308;2022-10-16T06:08:48;100198.69;;;8.89;94.30
27840;BME280;15207;42.182;24.308;2022-10-16T06:11:17;100199.00;;;8.98;94.26
27840;BME280;15207;42.182;24.308;2022-10-16T06:13:43;100206.84;;;9.02;93.71
27840;BME280;15207;42.182;24.308;2022-10-16T06:16:12;100210.00;;;9.08;94.57
27840;BME280;15207;42.182;24.308;2022-10-16T06:18:38;100206.25;;;9.27;94.51
27840;BME280;15207;42.182;24.308;2022-10-16T06:21:24;100207.91;;;9.44;93.72
27840;BME280;15207;42.182;24.308;2022-10-16T06:23:50;100203.25;;;9.62;93.43
27840;BME280;15207;42.182;24.308;2022-10-16T06:26:18;100214.34;;;9.71;93.17
27840;BME280;15207;42.182;24.308;2022-10-16T06:28:45;100217.81;;;9.87;93.16
27840;BME280;15207;42.182;24.308;2022-10-16T06:31:11;100218.69;;;10.02;93.13
27840;BME280;15207;42.182;24.308;2022-10-16T06:33:37;100216.28;;;10.12;91.71
27840;BME280;15207;42.182;24.308;2022-10-16T06:36:15;100219.72;;;10.14;91.80
27840;BME280;15207;42.182;24.308;2022-10-16T06:38:41;100223.63;;;10.38;90.83
27840;BME280;15207;42.182;24.308;2022-10-16T06:41:07;100226.19;;;10.54;91.19
27840;BME280;15207;42.182;24.308;2022-10-16T06:43:33;100228.22;;;10.50;89.43
27840;BME280;15207;42.182;24.308;2022-10-16T06:46:03;100220.56;;;10.58;89.21
27840;BME280;15207;42.182;24.308;2022-10-16T06:48:29;100218.53;;;10.62;88.20
27840;BME280;15207;42.182;24.308;2022-10-16T06:53:28;100228.06;;;10.81;87.61
27840;BME280;15207;42.182;24.308;2022-10-16T06:55:54;100233.84;;;11.02;86.49
27840;BME280;15207;42.182;24.308;2022-10-16T06:58:20;100227.22;;;11.21;84.95
27840;BME280;15207;42.182;24.308;2022-10-16T07:00:46;100233.91;;;11.28;85.22
27840;BME280;15207;42.182;24.308;2022-10-16T07:03:11;100234.56;;;11.45;83.84
27840;BME280;15207;42.182;24.308;2022-10-16T07:05:41;100239.63;;;11.49;82.86
27840;BME280;15207;42.182;24.308;2022-10-16T07:08:07;100241.81;;;11.57;83.95
27840;BME280;15207;42.182;24.308;2022-10-16T07:10:33;100238.16;;;11.71;83.53
27840;BME280;15207;42.182;24.308;2022-10-16T07:12:59;100246.09;;;11.73;83.06
27840;BME280;15207;42.182;24.308;2022-10-16T07:15:25;100243.09;;;11.90;82.18
27840;BME280;15207;42.182;24.308;2022-10-16T07:17:51;100237.81;;;11.89;81.88
27840;BME280;15207;42.182;24.308;2022-10-16T07:20:17;100240.00;;;12.10;81.06
27840;BME280;15207;42.182;24.308;2022-10-16T07:22:42;100235.69;;;12.07;80.50
27840;BME280;15207;42.182;24.308;2022-10-16T07:25:08;100233.69;;;12.11;81.22
27840;BME280;15207;42.182;24.308;2022-10-16T07:27:34;100238.38;;;12.33;81.29
27840;BME280;15207;42.182;24.308;2022-10-16T07:30:00;100231.13;;;12.47;80.05
27840;BME280;15207;42.182;24.308;2022-10-16T07:32:25;100230.72;;;12.53;79.79
27840;BME280;15207;42.182;24.308;2022-10-16T07:34:52;100231.94;;;12.73;79.80
27840;BME280;15207;42.182;24.308;2022-10-16T07:37:17;100231.16;;;12.84;77.56
27840;BME280;15207;42.182;24.308;2022-10-16T07:39:43;100234.50;;;12.99;76.59
27840;BME280;15207;42.182;24.308;2022-10-16T07:42:09;100222.25;;;12.95;77.29
27840;BME280;15207;42.182;24.308;2022-10-16T07:44:35;100230.41;;;13.06;75.75
27840;BME280;15207;42.182;24.308;2022-10-16T07:47:01;100235.94;;;13.16;75.53
27840;BME280;15207;42.182;24.308;2022-10-16T07:49:27;100235.53;;;13.34;74.91
27840;BME280;15207;42.182;24.308;2022-10-16T07:51:52;100237.91;;;13.50;73.74
27840;BME280;15207;42.182;24.308;2022-10-16T07:54:18;100233.69;;;13.59;73.62
27840;BME280;15207;42.182;24.308;2022-10-16T07:56:44;100232.22;;;13.66;72.51
27840;BME280;15207;42.182;24.308;2022-10-16T07:59:10;100240.47;;;13.87;73.58
27840;BME280;15207;42.182;24.308;2022-10-16T08:01:36;100238.41;;;14.14;71.87
27840;BME280;15207;42.182;24.308;2022-10-16T08:04:01;100234.13;;;14.23;70.99
27840;BME280;15207;42.182;24.308;2022-10-16T08:06:27;100234.44;;;14.52;71.40
27840;BME280;15207;42.182;24.308;2022-10-16T08:08:52;100233.47;;;14.65;69.21
27840;BME280;15207;42.182;24.308;2022-10-16T08:11:18;100239.94;;;14.74;68.37
27840;BME280;15207;42.182;24.308;2022-10-16T08:13:44;100237.38;;;14.84;67.67
27840;BME280;15207;42.182;24.308;2022-10-16T08:16:09;100234.81;;;14.82;68.21
27840;BME280;15207;42.182;24.308;2022-10-16T08:18:38;100232.13;;;14.82;67.90
27840;BME280;15207;42.182;24.308;2022-10-16T08:21:05;100232.66;;;14.97;67.42
27840;BME280;15207;42.182;24.308;2022-10-16T08:23:31;100237.19;;;15.08;67.26
27840;BME280;15207;42.182;24.308;2022-10-16T08:26:05;100227.91;;;15.22;66.95
27840;BME280;15207;42.182;24.308;2022-10-16T08:28:32;100227.94;;;15.43;66.72
27840;BME280;15207;42.182;24.308;2022-10-16T08:31:11;100234.06;;;15.88;65.42
27840;BME280;15207;42.182;24.308;2022-10-16T08:33:38;100235.38;;;16.15;62.55
27840;BME280;15207;42.182;24.308;2022-10-16T08:36:06;100235.56;;;16.23;61.83
27840;BME280;15207;42.182;24.308;2022-10-16T08:38:32;100238.69;;;16.29;61.30
27840;BME280;15207;42.182;24.308;2022-10-16T08:44:23;100229.03;;;16.26;59.38
27840;BME280;15207;42.182;24.308;2022-10-16T08:49:30;100225.06;;;15.99;60.01
27840;BME280;15207;42.182;24.308;2022-10-16T08:51:56;100220.59;;;16.19;60.63
27840;BME280;15207;42.182;24.308;2022-10-16T08:54:37;100223.81;;;16.34;59.97
27840;BME280;15207;42.182;24.308;2022-10-16T08:57:12;100211.75;;;16.58;57.92
27840;BME280;15207;42.182;24.308;2022-10-16T08:59:39;100221.03;;;16.75;57.83
27840;BME280;15207;42.182;24.308;2022-10-16T09:15:58;100207.13;;;17.39;54.29
27840;BME280;15207;42.182;24.308;2022-10-16T09:18:35;100203.88;;;17.45;53.90
27840;BME280;15207;42.182;24.308;2022-10-16T09:21:15;100210.38;;;17.73;53.47
27840;BME280;15207;42.182;24.308;2022-10-16T09:23:43;100207.25;;;17.67;53.38
27840;BME280;15207;42.182;24.308;2022-10-16T09:26:14;100200.03;;;17.48;53.63
27840;BME280;15207;42.182;24.308;2022-10-16T09:28:41;100195.97;;;17.72;53.50
27840;BME280;15207;42.182;24.308;2022-10-16T09:31:13;100198.00;;;17.60;52.56
27840;BME280;15207;42.182;24.308;2022-10-16T09:33:41;100193.28;;;17.62;53.56
27840;BME280;15207;42.182;24.308;2022-10-16T09:36:09;100195.53;;;17.77;53.84
27840;BME280;15207;42.182;24.308;2022-10-16T09:38:36;100188.03;;;17.51;53.58
27840;BME280;15207;42.182;24.308;2022-10-16T09:41:16;100190.84;;;17.69;51.70
27840;BME280;15207;42.182;24.308;2022-10-16T09:43:57;100189.09;;;17.88;51.51
27840;BME280;15207;42.182;24.308;2022-10-16T09:46:28;100188.50;;;17.84;50.46
27840;BME280;15207;42.182;24.308;2022-10-16T09:48:59;100187.47;;;18.43;48.67
27840;BME280;15207;42.182;24.308;2022-10-16T09:51:29;100188.53;;;18.50;48.04
27840;BME280;15207;42.182;24.308;2022-10-16T09:53:59;100183.53;;;18.73;46.77
27840;BME280;15207;42.182;24.308;2022-10-16T09:56:33;100181.75;;;18.64;47.40
27840;BME280;15207;42.182;24.308;2022-10-16T09:59:10;100182.31;;;18.68;46.92
27840;BME280;15207;42.182;24.308;2022-10-16T10:01:42;100185.38;;;18.55;45.93
27840;BME280;15207;42.182;24.308;2022-10-16T10:04:10;100186.19;;;17.99;46.89
27840;BME280;15207;42.182;24.308;2022-10-16T10:06:41;100180.91;;;18.35;46.33
27840;BME280;15207;42.182;24.308;2022-10-16T10:09:37;100183.59;;;18.17;46.34
27840;BME280;15207;42.182;24.308;2022-10-16T10:12:06;100174.81;;;17.95;46.44
27840;BME280;15207;42.182;24.308;2022-10-16T10:14:54;100165.66;;;17.58;47.24
27840;BME280;15207;42.182;24.308;2022-10-16T10:17:25;100162.00;;;17.88;47.48
27840;BME280;15207;42.182;24.308;2022-10-16T10:20:00;100158.56;;;17.95;47.10
27840;BME280;15207;42.182;24.308;2022-10-16T10:22:40;100163.34;;;17.64;46.51
27840;BME280;15207;42.182;24.308;2022-10-16T10:27:50;100154.22;;;18.03;46.25
27840;BME280;15207;42.182;24.308;2022-10-16T10:38:51;100132.72;;;18.75;43.36
27840;BME280;15207;42.182;24.308;2022-10-16T10:41:40;100129.28;;;18.92;44.52
27840;BME280;15207;42.182;24.308;2022-10-16T10:47:01;100124.84;;;19.27;43.07
27840;BME280;15207;42.182;24.308;2022-10-16T10:55:40;100121.66;;;18.41;43.73
27840;BME280;15207;42.182;24.308;2022-10-16T11:03:35;100106.91;;;18.53;43.79
27840;BME280;15207;42.182;24.308;2022-10-16T11:06:28;100109.72;;;18.15;44.11
27840;BME280;15207;42.182;24.308;2022-10-16T11:11:35;100099.72;;;18.34;45.00
27840;BME280;15207;42.182;24.308;2022-10-16T11:14:20;100098.59;;;18.91;43.07
27840;BME280;15207;42.182;24.308;2022-10-16T11:22:09;100094.06;;;19.00;42.77
27840;BME280;15207;42.182;24.308;2022-10-16T11:27:32;100092.81;;;19.12;43.06
27840;BME280;15207;42.182;24.308;2022-10-16T11:29:59;100094.16;;;18.90;43.38
27840;BME280;15207;42.182;24.308;2022-10-16T11:32:49;100093.00;;;18.74;43.04
27840;BME280;15207;42.182;24.308;2022-10-16T11:35:23;100090.66;;;18.80;43.54
27840;BME280;15207;42.182;24.308;2022-10-16T11:37:51;100093.63;;;19.23;43.13
27840;BME280;15207;42.182;24.308;2022-10-16T11:40:33;100087.41;;;19.65;41.63
27840;BME280;15207;42.182;24.308;2022-10-16T11:43:14;100088.69;;;19.88;40.99
27840;BME280;15207;42.182;24.308;2022-10-16T11:45:48;100089.09;;;19.66;41.69
27840;BME280;15207;42.182;24.308;2022-10-16T11:48:26;100085.31;;;19.86;40.15
27840;BME280;15207;42.182;24.308;2022-10-16T11:50:54;100082.22;;;19.89;40.22
27840;BME280;15207;42.182;24.308;2022-10-16T11:56:05;100071.88;;;19.92;39.62
27840;BME280;15207;42.182;24.308;2022-10-16T12:01:43;100076.91;;;19.71;40.65
27840;BME280;15207;42.182;24.308;2022-10-16T12:04:36;100081.53;;;20.13;39.54
27840;BME280;15207;42.182;24.308;2022-10-16T12:07:17;100065.56;;;20.18;39.35
27840;BME280;15207;42.182;24.308;2022-10-16T12:09:46;100074.50;;;20.02;39.56
27840;BME280;15207;42.182;24.308;2022-10-16T12:12:39;100081.06;;;19.91;39.42
27840;BME280;15207;42.182;24.308;2022-10-16T12:17:38;100086.28;;;19.76;40.08
27840;BME280;15207;42.182;24.308;2022-10-16T12:23:16;100092.91;;;19.47;40.43
27840;BME280;15207;42.182;24.308;2022-10-16T12:25:56;100084.06;;;19.80;40.36
27840;BME280;15207;42.182;24.308;2022-10-16T12:28:27;100082.38;;;19.79;40.13
27840;BME280;15207;42.182;24.308;2022-10-16T12:30:58;100083.16;;;19.36;40.61
27840;BME280;15207;42.182;24.308;2022-10-16T12:33:26;100092.84;;;19.65;40.51
27840;BME280;15207;42.182;24.308;2022-10-16T12:35:52;100085.09;;;19.87;39.59
27840;BME280;15207;42.182;24.308;2022-10-16T12:38:28;100088.25;;;20.01;39.63
27840;BME280;15207;42.182;24.308;2022-10-16T12:41:08;100083.38;;;20.13;39.06
27840;BME280;15207;42.182;24.308;2022-10-16T12:43:40;100090.94;;;19.58;39.12
27840;BME280;15207;42.182;24.308;2022-10-16T12:48:33;100084.69;;;19.39;39.25
27840;BME280;15207;42.182;24.308;2022-10-16T12:54:04;100082.44;;;19.95;38.60
27840;BME280;15207;42.182;24.308;2022-10-16T13:13:20;100104.44;;;19.76;36.19
27840;BME280;15207;42.182;24.308;2022-10-16T13:26:52;100091.03;;;19.21;36.86
27840;BME280;15207;42.182;24.308;2022-10-16T13:29:20;100097.59;;;19.63;36.24
27840;BME280;15207;42.182;24.308;2022-10-16T13:31:46;100096.03;;;19.95;35.50
27840;BME280;15207;42.182;24.308;2022-10-16T13:34:21;100090.16;;;20.08;35.36
27840;BME280;15207;42.182;24.308;2022-10-16T13:36:50;100097.47;;;20.16;35.36
27840;BME280;15207;42.182;24.308;2022-10-16T13:39:23;100094.97;;;20.23;33.75
27840;BME280;15207;42.182;24.308;2022-10-16T13:42:09;100100.56;;;20.13;33.02
27840;BME280;15207;42.182;24.308;2022-10-16T13:47:21;100092.75;;;20.18;34.78
27840;BME280;15207;42.182;24.308;2022-10-16T13:49:58;100102.56;;;20.11;35.28
27840;BME280;15207;42.182;24.308;2022-10-16T13:52:24;100098.50;;;20.15;35.37
27840;BME280;15207;42.182;24.308;2022-10-16T13:54:49;100096.31;;;20.19;34.65
27840;BME280;15207;42.182;24.308;2022-10-16T13:57:16;100096.56;;;19.99;34.25
27840;BME280;15207;42.182;24.308;2022-10-16T13:59:42;100104.28;;;19.77;35.68
27840;BME280;15207;42.182;24.308;2022-10-16T14:04:46;100093.91;;;20.07;34.44
27840;BME280;15207;42.182;24.308;2022-10-16T14:07:20;100104.28;;;19.77;34.33
27840;BME280;15207;42.182;24.308;2022-10-16T14:09:50;100100.34;;;19.45;35.42
27840;BME280;15207;42.182;24.308;2022-10-16T14:12:16;100104.50;;;19.31;36.55
27840;BME280;15207;42.182;24.308;2022-10-16T14:14:48;100104.28;;;19.51;36.19
27840;BME280;15207;42.182;24.308;2022-10-16T14:17:19;100111.84;;;19.12;35.93
27840;BME280;15207;42.182;24.308;2022-10-16T14:19:50;100105.34;;;19.05;35.85
27840;BME280;15207;42.182;24.308;2022-10-16T14:22:28;100105.47;;;19.22;36.06
27840;BME280;15207;42.182;24.308;2022-10-16T14:24:55;100106.75;;;19.36;36.56
27840;BME280;15207;42.182;24.308;2022-10-16T14:27:35;100108.91;;;19.32;36.55
27840;BME280;15207;42.182;24.308;2022-10-16T14:32:41;100108.91;;;19.32;36.95
27840;BME280;15207;42.182;24.308;2022-10-16T14:35:28;100105.69;;;19.28;37.06
27840;BME280;15207;42.182;24.308;2022-10-16T14:37:55;100104.06;;;18.99;37.31
27840;BME280;15207;42.182;24.308;2022-10-16T14:40:26;100103.25;;;18.81;37.38
27840;BME280;15207;42.182;24.308;2022-10-16T14:42:52;100108.28;;;18.94;37.37
27840;BME280;15207;42.182;24.308;2022-10-16T14:45:21;100110.63;;;18.88;37.23
27840;BME280;15207;42.182;24.308;2022-10-16T14:47:53;100108.22;;;18.67;37.08
27840;BME280;15207;42.182;24.308;2022-10-16T14:50:19;100110.28;;;18.55;37.75
27840;BME280;15207;42.182;24.308;2022-10-16T14:52:45;100109.66;;;18.43;38.19
27840;BME280;15207;42.182;24.308;2022-10-16T14:55:10;100103.44;;;18.33;38.30
27840;BME280;15207;42.182;24.308;2022-10-16T14:57:37;100111.59;;;18.51;38.45
27840;BME280;15207;42.182;24.308;2022-10-16T15:00:13;100117.16;;;18.31;39.41
27840;BME280;15207;42.182;24.308;2022-10-16T15:02:39;100115.81;;;18.45;39.30